Time;durP1;ratioP1;P1;durP2;ratioP2;P2;SDS_P1;SDS_P2;PMS_P1;PMS_P2;Temp;Humidity;BMP_temperature;BMP_pressure;BME280_temperature;BME280_humidity;BME280_pressure;Samples;Min_cycle;Max_cycle;Signal;HPM_P1;HPM_P2
2023/06/24 00:01:15;;;;;;;4.97;4.43;;;17.10;99.90;;;;;;5131693;27;20623;-68
2023/06/24 00:03:46;;;;;;;5.23;4.73;;;17.30;99.90;;;;;;5150350;27;20420;-68
2023/06/24 00:06:18;;;;;;;6.07;4.03;;;17.30;99.90;;;;;;5153814;27;20443;-68
2023/06/24 00:08:48;;;;;;;11.30;4.20;;;17.30;99.90;;;;;;5119144;27;20422;-69
2023/06/24 00:11:14;;;;;;;4.67;4.20;;;17.20;99.90;;;;;;5154719;27;20457;-68
2023/06/24 00:13:41;;;;;;;4.60;3.87;;;17.10;99.90;;;;;;5154721;27;20413;-68
2023/06/24 00:16:06;;;;;;;4.73;3.60;;;17.20;99.90;;;;;;5154567;27;20424;-68
2023/06/24 00:18:33;;;;;;;8.70;4.30;;;17.20;99.90;;;;;;5154315;27;20424;-69
2023/06/24 00:20:58;;;;;;;5.23;3.87;;;17.30;99.90;;;;;;5154398;27;20756;-68
2023/06/24 00:23:24;;;;;;;7.60;4.43;;;17.40;99.90;;;;;;5154448;27;20413;-68
2023/06/24 00:25:51;;;;;;;5.60;4.63;;;17.40;99.90;;;;;;5153953;27;20189;-68
2023/06/24 00:28:17;;;;;;;4.70;3.97;;;17.50;99.90;;;;;;5135144;27;20542;-68
2023/06/24 00:30:42;;;;;;;6.67;4.30;;;17.50;99.90;;;;;;5153342;27;20490;-67
2023/06/24 00:33:10;;;;;;;4.43;3.43;;;17.50;99.90;;;;;;5153686;27;20572;-68
2023/06/24 00:35:37;;;;;;;5.83;4.70;;;17.40;99.90;;;;;;5153448;27;20214;-68
2023/06/24 00:38:03;;;;;;;6.00;4.03;;;17.30;99.90;;;;;;5135100;27;20913;-68
2023/06/24 00:40:29;;;;;;;5.10;3.80;;;17.10;99.90;;;;;;5153334;27;20873;-67
2023/06/24 00:42:55;;;;;;;5.70;4.70;;;16.80;99.90;;;;;;5153363;27;20450;-68
2023/06/24 00:45:22;;;;;;;5.27;4.60;;;16.70;99.90;;;;;;5153359;27;20179;-68
2023/06/24 00:47:48;;;;;;;7.33;4.40;;;16.60;99.90;;;;;;5153283;27;20909;-67
2023/06/24 00:50:14;;;;;;;6.77;4.80;;;16.50;99.90;;;;;;5134349;27;20801;-68
2023/06/24 00:52:42;;;;;;;10.00;5.20;;;16.50;99.90;;;;;;5135025;27;21072;-68
2023/06/24 00:55:14;;;;;;;7.50;5.37;;;16.50;99.90;;;;;;5152968;27;20835;-68
2023/06/24 00:57:43;;;;;;;6.73;4.53;;;16.50;99.90;;;;;;5153289;27;20474;-67
2023/06/24 01:00:14;;;;;;;5.50;3.83;;;16.50;99.90;;;;;;5153424;27;20452;-68
2023/06/24 01:02:42;;;;;;;7.10;5.17;;;16.40;99.90;;;;;;5134274;27;20476;-68
2023/06/24 01:05:08;;;;;;;7.40;4.90;;;16.30;99.90;;;;;;5153164;27;20419;-68
2023/06/24 01:07:36;;;;;;;9.37;4.23;;;16.40;99.90;;;;;;5153082;27;20431;-68
2023/06/24 01:10:05;;;;;;;6.00;4.70;;;16.50;99.90;;;;;;5152940;27;20444;-67
2023/06/24 01:12:33;;;;;;;5.63;4.73;;;16.70;99.90;;;;;;5153108;27;20467;-67
2023/06/24 01:14:59;;;;;;;6.60;4.27;;;16.80;99.90;;;;;;5153396;27;21033;-67
2023/06/24 01:17:32;;;;;;;8.10;5.07;;;16.90;99.90;;;;;;5152408;27;20468;-67
2023/06/24 01:19:58;;;;;;;5.30;4.07;;;16.90;99.90;;;;;;5153366;27;20252;-67
2023/06/24 01:22:58;;;;;;;5.77;4.40;;;16.80;99.90;;;;;;5153289;27;20405;-67
2023/06/24 01:25:24;;;;;;;8.03;4.70;;;16.80;99.90;;;;;;5153294;27;20174;-67
2023/06/24 01:28:12;;;;;;;5.50;4.53;;;16.50;99.90;;;;;;5153052;27;20504;-66
2023/06/24 01:30:56;;;;;;;11.93;4.90;;;16.70;99.90;;;;;;5153318;27;20428;-68
2023/06/24 01:33:32;;;;;;;6.97;4.90;;;16.70;99.90;;;;;;5153082;27;20407;-67
2023/06/24 01:36:00;;;;;;;6.10;4.90;;;16.50;99.90;;;;;;5153027;27;20467;-66
2023/06/24 01:38:34;;;;;;;7.60;4.70;;;16.40;99.90;;;;;;5134117;27;20420;-66
2023/06/24 01:41:03;;;;;;;6.17;5.10;;;16.20;99.90;;;;;;5152855;27;20427;-66
2023/06/24 01:43:29;;;;;;;5.73;4.40;;;16.20;99.90;;;;;;5152799;27;20507;-66
2023/06/24 01:45:56;;;;;;;9.70;5.33;;;16.30;99.90;;;;;;5152686;27;20918;-68
2023/06/24 01:48:35;;;;;;;6.67;4.73;;;16.30;99.90;;;;;;5153109;27;20552;-67
2023/06/24 01:51:13;;;;;;;5.97;4.90;;;16.40;99.90;;;;;;5152849;27;20969;-67
2023/06/24 01:53:42;;;;;;;7.47;4.77;;;16.30;99.90;;;;;;5133938;27;20937;-67
2023/06/24 01:56:10;;;;;;;6.80;4.67;;;16.30;99.90;;;;;;5152511;27;20426;-66
2023/06/24 01:58:37;;;;;;;4.83;4.33;;;16.40;99.90;;;;;;5152412;27;20905;-67
2023/06/24 02:01:04;;;;;;;7.00;5.30;;;16.40;99.90;;;;;;5133848;27;20408;-68
2023/06/24 02:03:32;;;;;;;9.30;5.43;;;16.20;99.90;;;;;;5152332;27;21089;-67
2023/06/24 02:06:00;;;;;;;6.20;4.90;;;16.20;99.90;;;;;;5152044;27;20468;-67
2023/06/24 02:08:30;;;;;;;7.10;5.13;;;16.20;99.90;;;;;;5151863;27;20418;-67
2023/06/24 02:10:58;;;;;;;8.20;5.33;;;16.30;99.90;;;;;;5151855;27;20475;-67
2023/06/24 02:13:24;;;;;;;6.07;4.80;;;16.30;99.90;;;;;;5151857;27;20407;-67
2023/06/24 02:15:52;;;;;;;6.20;5.40;;;16.30;99.90;;;;;;5151617;27;20571;-67
2023/06/24 02:18:21;;;;;;;6.87;4.87;;;16.20;99.90;;;;;;5133054;27;20422;-67
2023/06/24 02:20:49;;;;;;;11.37;5.00;;;16.30;99.90;;;;;;5151254;27;20427;-67
2023/06/24 02:23:15;;;;;;;8.17;5.10;;;16.30;99.90;;;;;;5151311;27;20954;-67
2023/06/24 02:25:42;;;;;;;6.00;4.87;;;16.30;99.90;;;;;;5151333;27;20417;-66
2023/06/24 02:28:09;;;;;;;9.73;5.40;;;16.10;99.90;;;;;;5132121;27;20969;-67
2023/06/24 02:30:35;;;;;;;8.90;3.77;;;16.20;99.90;;;;;;5151145;27;20521;-67
2023/06/24 02:33:01;;;;;;;8.43;4.30;;;16.40;99.90;;;;;;5151162;27;20763;-66
2023/06/24 02:35:27;;;;;;;6.67;4.90;;;16.40;99.90;;;;;;5151011;27;20498;-68
2023/06/24 02:37:53;;;;;;;6.27;4.87;;;16.50;99.90;;;;;;5150966;27;20412;-68
2023/06/24 02:40:19;;;;;;;7.03;5.33;;;16.60;99.90;;;;;;5132164;27;20201;-67
2023/06/24 02:42:45;;;;;;;5.40;4.30;;;16.70;99.90;;;;;;5132194;27;20268;-67
2023/06/24 02:45:11;;;;;;;6.47;4.70;;;16.70;99.90;;;;;;5132235;27;20517;-67
2023/06/24 02:47:38;;;;;;;6.57;4.57;;;16.30;99.90;;;;;;5150701;27;20175;-67
2023/06/24 02:50:07;;;;;;;8.30;4.57;;;16.30;99.90;;;;;;5150837;27;20919;-67
2023/06/24 02:52:36;;;;;;;7.93;5.10;;;16.40;99.90;;;;;;5150841;27;20802;-67
2023/06/24 02:55:02;;;;;;;6.67;5.23;;;16.30;99.90;;;;;;5150336;27;20911;-67
2023/06/24 02:57:28;;;;;;;6.90;4.70;;;16.30;99.90;;;;;;5150538;27;20528;-68
2023/06/24 02:59:54;;;;;;;9.30;4.53;;;16.20;99.90;;;;;;5150194;27;20432;-66
2023/06/24 03:02:21;;;;;;;6.20;4.23;;;16.30;99.90;;;;;;5150371;27;20943;-67
2023/06/24 03:04:48;;;;;;;6.63;4.83;;;16.30;99.90;;;;;;5131402;27;20198;-67
2023/06/24 03:07:14;;;;;;;9.70;4.90;;;16.10;99.90;;;;;;5150386;27;20502;-67
2023/06/24 03:09:40;;;;;;;5.77;4.60;;;16.20;99.90;;;;;;5131895;27;20517;-66
2023/06/24 03:12:06;;;;;;;8.13;4.90;;;16.00;99.90;;;;;;5131657;27;20181;-67
2023/06/24 03:14:32;;;;;;;8.50;4.57;;;15.90;99.90;;;;;;5150290;27;20461;-67
2023/06/24 03:16:57;;;;;;;6.60;5.27;;;15.90;99.90;;;;;;5114538;27;20520;-67
2023/06/24 03:19:23;;;;;;;6.43;4.30;;;16.00;99.90;;;;;;5150256;27;20195;-67
2023/06/24 03:21:48;;;;;;;6.43;5.33;;;16.10;99.90;;;;;;5150356;27;20210;-67
2023/06/24 03:24:14;;;;;;;5.53;4.33;;;16.10;99.90;;;;;;5150368;27;20180;-67
2023/06/24 03:26:40;;;;;;;7.00;5.37;;;16.10;99.90;;;;;;5150278;27;20292;-67
2023/06/24 03:29:07;;;;;;;5.03;4.53;;;15.90;99.90;;;;;;5150246;27;20198;-67
2023/06/24 03:31:33;;;;;;;5.63;5.03;;;15.80;99.90;;;;;;5131715;27;20436;-67
2023/06/24 03:33:58;;;;;;;16.23;4.50;;;15.70;99.90;;;;;;5150156;27;20561;-67
2023/06/24 03:36:24;;;;;;;9.50;5.50;;;15.70;99.90;;;;;;5150267;27;20180;-67
2023/06/24 03:38:50;;;;;;;6.97;4.80;;;15.60;99.90;;;;;;5150577;27;20293;-67
2023/06/24 03:41:16;;;;;;;8.73;4.83;;;15.50;99.90;;;;;;5156546;27;20203;-67
2023/06/24 03:43:41;;;;;;;5.97;4.93;;;15.50;99.90;;;;;;5157062;27;20445;-67
2023/06/24 03:46:07;;;;;;;7.60;4.77;;;15.70;99.90;;;;;;5156927;27;20192;-68
2023/06/24 03:48:34;;;;;;;7.13;4.50;;;15.90;99.90;;;;;;5156919;27;20180;-68
2023/06/24 03:51:00;;;;;;;6.60;4.80;;;16.00;99.90;;;;;;5156876;27;20414;-67
2023/06/24 03:53:25;;;;;;;5.37;4.07;;;16.20;99.90;;;;;;5156932;27;20480;-67
2023/06/24 03:55:51;;;;;;;5.30;4.00;;;16.30;99.90;;;;;;5156786;27;20205;-66
2023/06/24 03:58:16;;;;;;;6.00;4.30;;;16.50;99.90;;;;;;5156975;27;20178;-67
2023/06/24 04:00:44;;;;;;;4.43;3.90;;;16.60;99.90;;;;;;5120971;27;20197;-67
2023/06/24 04:03:10;;;;;;;5.73;3.90;;;16.60;99.90;;;;;;5156833;27;20171;-67
2023/06/24 04:05:35;;;;;;;6.70;4.40;;;16.80;99.90;;;;;;5156816;27;20459;-67
2023/06/24 04:08:03;;;;;;;5.30;4.73;;;16.90;99.90;;;;;;5156841;27;20417;-68
2023/06/24 04:10:29;;;;;;;4.83;4.27;;;16.90;99.90;;;;;;5138635;27;20256;-68
2023/06/24 04:12:54;;;;;;;4.13;3.73;;;17.00;99.90;;;;;;5156843;27;20415;-68
2023/06/24 04:15:20;;;;;;;9.20;4.70;;;16.80;99.90;;;;;;5138121;27;20580;-76
2023/06/24 04:17:45;;;;;;;9.07;4.57;;;16.90;99.90;;;;;;5121248;27;20228;-76
2023/06/24 04:20:11;;;;;;;5.50;4.03;;;17.00;99.90;;;;;;5157623;27;20199;-78
2023/06/24 04:22:41;;;;;;;8.03;4.30;;;17.20;99.90;;;;;;5121824;27;20182;-76
2023/06/24 04:25:07;;;;;;;5.30;3.70;;;17.20;99.90;;;;;;5157267;27;20183;-76
2023/06/24 04:27:33;;;;;;;7.53;4.67;;;17.30;99.90;;;;;;5157169;27;20979;-76
2023/06/24 04:30:00;;;;;;;6.60;5.40;;;17.30;99.90;;;;;;5157337;27;20951;-76
2023/06/24 04:32:25;;;;;;;6.10;5.50;;;17.10;99.90;;;;;;5157344;27;20938;-76
2023/06/24 04:34:52;;;;;;;7.73;5.60;;;16.90;99.90;;;;;;5157202;27;20574;-75
2023/06/24 04:37:18;;;;;;;11.33;6.00;;;16.60;99.90;;;;;;5156876;27;20878;-76
2023/06/24 04:39:44;;;;;;;7.23;6.00;;;16.50;99.90;;;;;;5137820;27;20306;-76
2023/06/24 04:42:10;;;;;;;10.23;6.60;;;16.40;99.90;;;;;;5156493;27;20266;-75
2023/06/24 04:44:36;;;;;;;8.37;5.73;;;16.30;99.90;;;;;;5137985;27;20937;-76
2023/06/24 04:47:02;;;;;;;8.30;5.70;;;16.30;99.90;;;;;;5137640;27;20429;-75
2023/06/24 04:49:27;;;;;;;7.90;6.30;;;16.30;99.90;;;;;;5156434;27;20439;-76
2023/06/24 04:51:53;;;;;;;8.70;5.90;;;16.20;99.90;;;;;;5153258;27;20721;-77
2023/06/24 04:54:18;;;;;;;6.27;5.67;;;16.20;99.90;;;;;;5153219;27;20243;-76
2023/06/24 04:56:45;;;;;;;9.90;6.20;;;16.20;99.90;;;;;;5152976;27;20276;-75
2023/06/24 04:59:11;;;;;;;8.77;5.70;;;16.10;99.90;;;;;;5134172;27;20201;-75
2023/06/24 05:01:36;;;;;;;6.13;5.40;;;16.20;99.90;;;;;;5152929;27;20423;-76
2023/06/24 05:04:02;;;;;;;7.70;6.27;;;16.30;99.90;;;;;;5153293;27;20423;-76
2023/06/24 05:06:28;;;;;;;9.30;6.53;;;16.30;99.90;;;;;;5152988;27;20185;-74
2023/06/24 05:08:54;;;;;;;6.30;5.13;;;16.30;99.90;;;;;;5134126;27;20227;-76
2023/06/24 05:11:19;;;;;;;6.53;5.67;;;16.30;99.90;;;;;;5134215;27;20222;-76
2023/06/24 05:13:45;;;;;;;7.20;5.80;;;16.30;99.90;;;;;;5152683;27;20183;-76
2023/06/24 05:16:10;;;;;;;9.13;5.77;;;16.30;99.90;;;;;;5133778;27;20218;-76
2023/06/24 05:18:36;;;;;;;6.90;6.10;;;16.50;99.90;;;;;;5133805;27;20622;-75
2023/06/24 05:21:02;;;;;;;7.93;5.63;;;16.50;99.90;;;;;;5152512;27;20188;-75
2023/06/24 05:23:27;;;;;;;7.80;5.80;;;16.60;99.90;;;;;;5152490;27;20196;-76
2023/06/24 05:25:53;;;;;;;6.50;5.80;;;16.60;99.90;;;;;;5152444;27;20191;-75
2023/06/24 05:28:18;;;;;;;9.80;5.67;;;16.70;99.90;;;;;;5152564;27;20207;-75
2023/06/24 05:30:45;;;;;;;8.00;6.40;;;16.80;99.90;;;;;;5152293;27;20204;-75
2023/06/24 05:33:11;;;;;;;13.50;5.90;;;16.90;99.90;;;;;;5152310;27;20176;-75
2023/06/24 05:35:39;;;;;;;11.20;5.90;;;16.90;99.90;;;;;;5133474;27;20456;-75
2023/06/24 05:38:05;;;;;;;8.13;5.77;;;17.00;99.90;;;;;;5152237;27;20287;-75
2023/06/24 05:40:31;;;;;;;12.83;6.77;;;17.10;99.90;;;;;;5151954;27;20548;-76
2023/06/24 05:42:56;;;;;;;8.70;5.77;;;17.10;99.90;;;;;;5133539;27;20233;-76
2023/06/24 05:45:22;;;;;;;6.20;4.97;;;17.20;99.90;;;;;;5152305;27;20822;-76
2023/06/24 05:47:47;;;;;;;9.30;4.70;;;17.30;99.90;;;;;;5133589;27;20185;-74
2023/06/24 05:50:13;;;;;;;7.00;5.30;;;17.60;99.90;;;;;;5133157;27;20589;-75
2023/06/24 05:52:39;;;;;;;14.03;5.27;;;17.70;99.90;;;;;;5133171;27;20286;-75
2023/06/24 05:55:05;;;;;;;8.70;4.63;;;17.80;99.90;;;;;;5133344;27;20461;-75
2023/06/24 05:57:31;;;;;;;7.87;5.27;;;17.90;99.90;;;;;;5152283;27;20191;-75
2023/06/24 05:59:56;;;;;;;6.10;5.20;;;18.20;99.90;;;;;;5134039;27;20497;-73
2023/06/24 06:02:22;;;;;;;7.50;4.93;;;18.30;99.90;;;;;;5152088;27;20215;-73
2023/06/24 06:04:47;;;;;;;5.30;4.33;;;18.50;99.90;;;;;;5152482;27;20227;-72
2023/06/24 06:07:13;;;;;;;6.13;5.33;;;18.70;99.90;;;;;;5152178;27;20185;-72
2023/06/24 06:09:39;;;;;;;5.60;5.10;;;18.80;99.90;;;;;;5152362;27;20227;-72
2023/06/24 06:12:05;;;;;;;9.97;5.17;;;18.90;99.90;;;;;;5133607;27;20193;-72
2023/06/24 06:14:30;;;;;;;9.87;5.50;;;19.10;99.90;;;;;;5133067;27;20244;-72
2023/06/24 06:16:56;;;;;;;6.10;4.90;;;19.20;99.90;;;;;;5151479;27;20447;-72
2023/06/24 06:19:22;;;;;;;6.73;5.30;;;19.30;99.90;;;;;;5132761;27;20223;-72
2023/06/24 06:21:49;;;;;;;8.40;5.27;;;19.50;99.90;;;;;;5151388;27;20183;-72
2023/06/24 06:24:14;;;;;;;5.90;4.80;;;19.70;99.90;;;;;;5151195;27;20187;-72
2023/06/24 06:26:44;;;;;;;8.63;4.97;;;19.80;99.90;;;;;;5132412;27;20453;-73
2023/06/24 06:29:13;;;;;;;6.97;4.70;;;19.90;99.90;;;;;;5132399;27;20204;-68
2023/06/24 06:31:39;;;;;;;7.00;5.00;;;20.00;99.90;;;;;;5151052;27;20467;-68
2023/06/24 06:34:05;;;;;;;6.33;4.73;;;20.10;99.90;;;;;;5150956;27;20437;-68
2023/06/24 06:36:31;;;;;;;5.90;4.73;;;20.20;99.90;;;;;;5150915;27;20927;-68
2023/06/24 06:38:56;;;;;;;6.20;4.87;;;20.30;99.90;;;;;;5150949;27;20565;-68
2023/06/24 06:41:24;;;;;;;6.53;5.27;;;20.40;99.90;;;;;;5150939;27;20169;-68
2023/06/24 06:43:53;;;;;;;10.57;5.03;;;20.60;99.90;;;;;;5151113;27;20664;-68
2023/06/24 06:46:19;;;;;;;5.80;5.20;;;20.60;99.90;;;;;;5132333;27;20417;-67
2023/06/24 06:48:45;;;;;;;5.63;4.70;;;20.70;99.90;;;;;;5150809;27;20416;-67
2023/06/24 06:51:13;;;;;;;6.37;4.83;;;20.80;99.90;;;;;;5150729;27;20414;-68
2023/06/24 06:53:39;;;;;;;5.40;4.00;;;20.90;99.90;;;;;;5150700;27;20177;-67
2023/06/24 06:56:04;;;;;;;8.40;4.53;;;20.90;99.90;;;;;;5150563;27;20577;-68
2023/06/24 06:58:30;;;;;;;9.30;4.60;;;21.00;99.90;;;;;;5150827;27;20848;-68
2023/06/24 07:00:55;;;;;;;8.40;4.77;;;21.10;99.90;;;;;;5150591;27;20176;-67
2023/06/24 07:03:21;;;;;;;6.37;5.10;;;21.20;99.90;;;;;;5150578;27;20188;-67
2023/06/24 07:05:47;;;;;;;5.90;4.90;;;21.30;99.90;;;;;;5150353;27;20173;-67
2023/06/24 07:08:12;;;;;;;5.37;4.73;;;21.40;99.90;;;;;;5131945;27;20187;-67
2023/06/24 07:10:38;;;;;;;5.13;4.50;;;21.40;99.90;;;;;;5150570;27;20212;-68
2023/06/24 07:13:04;;;;;;;5.10;4.60;;;21.60;99.90;;;;;;5131723;27;20191;-67
2023/06/24 07:15:29;;;;;;;7.50;3.70;;;21.60;99.90;;;;;;5149521;27;20244;-68
2023/06/24 07:17:55;;;;;;;6.70;5.03;;;21.80;99.90;;;;;;5150415;27;20238;-67
2023/06/24 07:20:22;;;;;;;6.90;4.40;;;21.90;99.90;;;;;;5150101;27;20706;-68
2023/06/24 07:22:47;;;;;;;5.83;3.97;;;22.00;99.90;;;;;;5150182;27;20181;-68
2023/06/24 07:25:13;;;;;;;6.90;4.93;;;22.10;99.90;;;;;;5150387;27;20445;-68
2023/06/24 07:27:39;;;;;;;4.30;3.90;;;22.10;99.90;;;;;;5150097;27;20215;-66
2023/06/24 07:30:06;;;;;;;4.67;4.10;;;22.10;99.90;;;;;;5150122;27;20978;-69
2023/06/24 07:32:31;;;;;;;4.53;4.00;;;22.00;98.90;;;;;;5150266;27;20417;-68
2023/06/24 07:34:57;;;;;;;5.97;3.90;;;22.10;99.90;;;;;;5149967;27;20461;-68
2023/06/24 07:37:23;;;;;;;4.57;4.17;;;22.10;99.90;;;;;;5150061;27;20172;-68
2023/06/24 07:39:48;;;;;;;4.80;4.30;;;22.20;99.90;;;;;;5149980;27;20208;-68
2023/06/24 07:42:18;;;;;;;4.47;3.87;;;22.20;99.90;;;;;;5131592;27;20182;-68
2023/06/24 07:44:45;;;;;;;4.97;4.20;;;22.30;99.90;;;;;;5150127;27;20180;-68
2023/06/24 07:47:10;;;;;;;3.60;3.30;;;22.40;99.90;;;;;;5131543;27;20432;-68
2023/06/24 07:49:36;;;;;;;5.47;4.27;;;22.60;99.80;;;;;;5131240;27;20437;-68
2023/06/24 07:52:02;;;;;;;5.13;3.90;;;22.60;99.60;;;;;;5149952;27;20216;-68
2023/06/24 07:54:28;;;;;;;5.30;3.93;;;22.70;99.90;;;;;;5149830;27;20211;-68
2023/06/24 07:56:53;;;;;;;7.40;4.30;;;22.70;99.00;;;;;;5149975;27;20426;-68
2023/06/24 07:59:19;;;;;;;4.40;4.00;;;22.80;99.20;;;;;;5114103;27;20204;-68
2023/06/24 08:01:44;;;;;;;5.80;4.80;;;23.00;99.60;;;;;;5150132;27;20189;-68
2023/06/24 08:04:10;;;;;;;4.70;3.80;;;23.10;98.60;;;;;;5149999;27;20273;-68
2023/06/24 08:06:35;;;;;;;3.57;3.27;;;23.10;99.80;;;;;;5149773;27;20178;-68
2023/06/24 08:09:01;;;;;;;5.10;4.10;;;23.30;98.00;;;;;;5149809;27;20221;-68
2023/06/24 08:11:26;;;;;;;4.40;3.43;;;23.40;98.10;;;;;;5131462;27;20332;-68
2023/06/24 08:13:52;;;;;;;4.07;3.53;;;23.60;98.70;;;;;;5150003;27;20198;-68
2023/06/24 08:16:20;;;;;;;4.60;3.90;;;23.70;97.90;;;;;;5131451;27;20225;-68
2023/06/24 08:18:46;;;;;;;4.10;3.80;;;23.50;96.40;;;;;;5150155;27;20180;-68
2023/06/24 08:21:11;;;;;;;6.40;4.10;;;23.30;96.40;;;;;;5150353;27;20423;-68
2023/06/24 08:23:37;;;;;;;4.20;3.80;;;23.10;95.70;;;;;;5150485;27;20406;-68
2023/06/24 08:26:02;;;;;;;5.40;4.03;;;23.00;96.10;;;;;;5132924;27;20218;-68
2023/06/24 08:28:28;;;;;;;4.30;3.90;;;23.20;95.80;;;;;;5154552;27;20193;-68
2023/06/24 08:30:54;;;;;;;3.90;3.60;;;23.40;94.70;;;;;;5154280;27;20656;-68
2023/06/24 08:33:19;;;;;;;3.80;3.47;;;23.80;95.40;;;;;;5154397;27;20728;-68
2023/06/24 08:35:45;;;;;;;5.10;3.67;;;24.00;95.80;;;;;;5154091;27;20258;-68
2023/06/24 08:38:10;;;;;;;4.90;3.50;;;23.90;94.80;;;;;;5154318;27;20255;-68
2023/06/24 08:40:39;;;;;;;5.07;3.80;;;23.80;95.20;;;;;;5153965;27;20700;-68
2023/06/24 08:43:06;;;;;;;4.13;3.73;;;23.90;95.50;;;;;;5154208;27;20181;-68
2023/06/24 08:45:31;;;;;;;5.20;4.00;;;23.80;95.50;;;;;;5153640;27;20415;-68
2023/06/24 08:47:58;;;;;;;7.23;4.07;;;23.80;94.80;;;;;;5153464;27;21002;-68
2023/06/24 08:50:30;;;;;;;3.70;3.40;;;24.10;94.70;;;;;;5153101;27;20198;-68
2023/06/24 08:52:56;;;;;;;7.77;4.20;;;24.40;96.00;;;;;;5134573;27;20416;-68
2023/06/24 08:55:26;;;;;;;5.93;3.80;;;24.50;92.90;;;;;;5153152;27;20543;-68
2023/06/24 08:57:52;;;;;;;4.13;3.73;;;24.40;93.50;;;;;;5152960;27;20499;-68
2023/06/24 09:00:18;;;;;;;4.17;3.77;;;24.60;92.70;;;;;;5152949;27;20518;-68
2023/06/24 09:02:44;;;;;;;4.40;3.93;;;24.40;92.60;;;;;;5152892;27;20179;-68
2023/06/24 09:05:09;;;;;;;4.40;4.00;;;24.70;92.90;;;;;;5134081;27;20428;-68
2023/06/24 09:07:35;;;;;;;4.40;4.00;;;25.00;93.40;;;;;;5152813;27;20179;-68
2023/06/24 09:10:00;;;;;;;5.70;3.70;;;25.40;92.70;;;;;;5134138;27;20327;-68
2023/06/24 09:12:27;;;;;;;6.40;3.80;;;25.60;90.50;;;;;;5152640;27;20177;-68
2023/06/24 09:14:52;;;;;;;3.73;3.43;;;25.80;90.90;;;;;;5152560;27;20752;-68
2023/06/24 09:17:21;;;;;;;3.87;3.47;;;25.90;90.90;;;;;;5152755;27;20418;-68
2023/06/24 09:19:48;;;;;;;3.43;3.13;;;26.00;90.20;;;;;;5134372;27;20203;-68
2023/06/24 09:22:17;;;;;;;6.07;4.00;;;26.40;90.50;;;;;;5133946;27;20461;-68
2023/06/24 09:24:46;;;;;;;4.67;3.80;;;26.40;89.90;;;;;;5152486;27;21093;-68
2023/06/24 09:27:14;;;;;;;4.43;3.77;;;26.30;89.00;;;;;;5133432;27;21120;-68
2023/06/24 09:29:40;;;;;;;4.70;3.60;;;25.80;88.00;;;;;;5152602;27;20858;-68
2023/06/24 09:32:06;;;;;;;4.30;3.90;;;25.70;89.20;;;;;;5152584;27;20832;-68
2023/06/24 09:34:33;;;;;;;5.13;3.57;;;25.50;87.70;;;;;;5152119;27;20533;-68
2023/06/24 09:36:59;;;;;;;4.27;3.50;;;25.90;87.70;;;;;;5133106;27;20422;-68
2023/06/24 09:39:29;;;;;;;3.93;3.63;;;26.20;88.60;;;;;;5151763;27;21064;-68
2023/06/24 09:41:58;;;;;;;3.40;3.10;;;26.60;86.60;;;;;;5152253;27;20406;-68
2023/06/24 09:44:25;;;;;;;6.40;3.00;;;27.00;85.40;;;;;;5152300;27;20421;-68
2023/06/24 09:46:52;;;;;;;3.50;3.20;;;27.40;85.00;;;;;;5152276;27;20790;-68
2023/06/24 09:49:18;;;;;;;4.83;3.77;;;27.40;81.80;;;;;;5152108;27;20426;-68
2023/06/24 09:51:46;;;;;;;3.70;3.30;;;27.30;81.00;;;;;;5152156;27;20420;-68
2023/06/24 09:54:14;;;;;;;4.50;3.60;;;27.40;84.00;;;;;;5152313;27;20414;-68
2023/06/24 09:56:45;;;;;;;4.07;3.67;;;27.70;80.80;;;;;;5133507;27;20934;-67
2023/06/24 09:59:12;;;;;;;5.53;3.77;;;27.90;81.10;;;;;;5152428;27;20956;-68
2023/06/24 10:01:43;;;;;;;4.90;3.60;;;28.30;81.90;;;;;;5133830;27;20414;-67
2023/06/24 10:04:15;;;;;;;4.63;3.50;;;27.80;81.90;;;;;;5134076;27;20796;-68
2023/06/24 10:06:40;;;;;;;3.97;3.50;;;28.10;81.30;;;;;;5152461;27;20402;-68
2023/06/24 10:09:06;;;;;;;3.40;2.83;;;28.20;78.50;;;;;;5152319;27;21102;-68
2023/06/24 10:11:32;;;;;;;6.40;2.67;;;28.50;79.00;;;;;;5152358;27;20184;-68
2023/06/24 10:13:58;;;;;;;4.87;2.93;;;28.90;81.40;;;;;;5116385;27;20793;-68
2023/06/24 10:16:23;;;;;;;3.30;2.97;;;29.10;76.70;;;;;;5151683;27;20239;-68
2023/06/24 10:18:49;;;;;;;3.73;3.30;;;29.20;73.70;;;;;;5133279;27;20196;-68
2023/06/24 10:21:15;;;;;;;4.70;3.30;;;29.20;74.80;;;;;;5151851;27;20309;-68
2023/06/24 10:23:53;;;;;;;5.60;3.23;;;29.30;75.50;;;;;;5151840;27;20543;-68
2023/06/24 10:26:28;;;;;;;5.27;3.50;;;28.60;74.50;;;;;;5132735;27;20441;-68
2023/06/24 10:29:05;;;;;;;3.73;3.40;;;28.70;75.10;;;;;;5151297;27;20428;-68
2023/06/24 10:31:43;;;;;;;4.27;3.37;;;29.00;73.90;;;;;;5151598;27;20493;-68
2023/06/24 10:34:43;;;;;;;4.03;3.73;;;29.40;73.70;;;;;;5151664;27;20456;-68
2023/06/24 10:37:11;;;;;;;4.27;3.20;;;29.60;72.20;;;;;;5151820;27;20938;-67
2023/06/24 10:39:48;;;;;;;4.40;3.40;;;29.90;71.50;;;;;;5132861;27;20437;-68
2023/06/24 10:42:36;;;;;;;3.43;3.13;;;30.10;72.90;;;;;;5151675;27;20402;-68
2023/06/24 10:45:12;;;;;;;4.07;3.67;;;30.20;69.40;;;;;;5132887;27;20423;-69
2023/06/24 10:47:41;;;;;;;4.60;3.23;;;30.10;71.80;;;;;;5151517;27;20421;-68
2023/06/24 10:50:09;;;;;;;6.07;4.13;;;30.10;70.50;;;;;;5150655;27;20802;-68
2023/06/24 10:52:43;;;;;;;3.73;3.43;;;30.20;71.40;;;;;;5150944;27;20417;-68
2023/06/24 10:55:09;;;;;;;4.33;3.67;;;30.30;69.30;;;;;;5150778;27;20449;-69
2023/06/24 10:57:35;;;;;;;3.77;3.13;;;30.40;68.30;;;;;;5132043;27;20798;-68
2023/06/24 11:00:03;;;;;;;4.50;3.67;;;30.40;67.90;;;;;;5131920;27;20529;-68
2023/06/24 11:02:29;;;;;;;3.60;3.30;;;30.40;69.10;;;;;;5132134;27;20287;-68
2023/06/24 11:04:57;;;;;;;10.20;3.03;;;30.50;68.70;;;;;;5150540;27;20516;-68
2023/06/24 11:07:24;;;;;;;4.57;3.13;;;30.70;68.80;;;;;;5150459;27;20458;-69
2023/06/24 11:09:50;;;;;;;3.00;2.80;;;30.80;68.90;;;;;;5150308;27;20490;-69
2023/06/24 11:12:16;;;;;;;3.67;3.37;;;30.80;73.40;;;;;;5131617;27;20410;-68
2023/06/24 11:14:43;;;;;;;3.90;3.60;;;30.80;69.40;;;;;;5150304;27;20985;-69
2023/06/24 11:17:09;;;;;;;3.83;3.47;;;31.00;72.00;;;;;;5150094;27;20423;-69
2023/06/24 11:19:38;;;;;;;3.63;3.27;;;31.00;70.10;;;;;;5150220;27;20483;-69
2023/06/24 11:22:06;;;;;;;3.20;2.90;;;31.20;68.40;;;;;;5150322;27;20469;-69
2023/06/24 11:24:32;;;;;;;3.53;2.90;;;31.30;66.80;;;;;;5150060;27;20438;-68
2023/06/24 11:26:57;;;;;;;3.90;3.60;;;31.30;69.60;;;;;;5131229;27;20472;-68
2023/06/24 11:29:23;;;;;;;4.90;3.03;;;31.60;68.90;;;;;;5131486;27;20207;-68
2023/06/24 11:31:50;;;;;;;4.43;3.57;;;31.40;66.50;;;;;;5150105;27;20267;-69
2023/06/24 11:34:16;;;;;;;3.80;3.50;;;30.20;64.20;;;;;;5149994;27;20670;-69
2023/06/24 11:36:42;;;;;;;3.50;3.20;;;29.90;66.90;;;;;;5150159;27;20409;-69
2023/06/24 11:39:07;;;;;;;3.80;3.50;;;30.10;65.20;;;;;;5149997;27;20426;-69
2023/06/24 11:41:33;;;;;;;4.53;3.77;;;30.40;65.30;;;;;;5150134;27;20874;-68
2023/06/24 11:43:59;;;;;;;3.90;3.50;;;30.50;64.80;;;;;;5151148;27;20263;-69
2023/06/24 11:46:33;;;;;;;6.80;4.20;;;30.70;65.40;;;;;;5133002;27;20594;-69
2023/06/24 11:49:05;;;;;;;3.67;3.33;;;30.60;63.70;;;;;;5132330;27;20210;-69
2023/06/24 11:51:31;;;;;;;3.60;3.30;;;30.50;64.20;;;;;;5152479;27;20477;-72
2023/06/24 11:54:05;;;;;;;4.33;2.93;;;30.50;66.00;;;;;;5115899;27;20417;-72
2023/06/24 11:56:37;;;;;;;3.40;3.10;;;30.50;64.60;;;;;;5131709;27;20190;-71
2023/06/24 11:59:18;;;;;;;5.47;4.00;;;30.30;61.80;;;;;;5150104;27;20472;-73
2023/06/24 12:01:44;;;;;;;8.50;3.10;;;30.00;65.40;;;;;;5133491;27;20425;-70
2023/06/24 12:04:13;;;;;;;5.43;4.23;;;29.90;64.50;;;;;;5153929;27;20414;-69
2023/06/24 12:06:40;;;;;;;3.27;2.97;;;29.30;62.70;;;;;;5153866;27;20409;-72
2023/06/24 12:09:06;;;;;;;4.40;3.10;;;28.90;63.30;;;;;;5153807;27;20476;-71
2023/06/24 12:11:32;;;;;;;4.33;3.43;;;28.40;61.10;;;;;;5154002;27;20441;-71
2023/06/24 12:13:57;;;;;;;5.03;3.50;;;28.40;61.60;;;;;;5135058;27;20218;-71
2023/06/24 12:16:24;;;;;;;3.40;3.10;;;28.60;61.20;;;;;;5153729;27;20212;-71
2023/06/24 12:18:50;;;;;;;3.87;3.37;;;28.80;60.90;;;;;;5153819;27;20576;-72
2023/06/24 12:21:16;;;;;;;5.60;2.90;;;29.00;61.70;;;;;;5135294;27;20409;-71
2023/06/24 12:23:41;;;;;;;3.40;3.10;;;28.90;65.40;;;;;;5153725;27;20219;-72
2023/06/24 12:26:07;;;;;;;4.67;2.87;;;28.90;62.00;;;;;;5153512;27;20190;-71
2023/06/24 12:28:32;;;;;;;4.40;3.40;;;28.90;64.10;;;;;;5153501;27;20197;-71
2023/06/24 12:30:58;;;;;;;3.60;3.30;;;29.00;61.50;;;;;;5153822;27;20184;-71
2023/06/24 12:33:24;;;;;;;3.73;3.43;;;29.10;60.90;;;;;;5153958;27;20195;-70
2023/06/24 12:35:49;;;;;;;3.23;3.03;;;29.10;59.60;;;;;;5135581;27;20210;-73
2023/06/24 12:38:15;;;;;;;4.13;3.20;;;29.20;61.00;;;;;;5118482;27;20606;-72
2023/06/24 12:40:41;;;;;;;3.50;3.20;;;29.20;59.40;;;;;;5135502;27;20192;-70
2023/06/24 12:43:07;;;;;;;5.23;3.30;;;29.30;59.20;;;;;;5118236;27;20416;-71
2023/06/24 12:45:33;;;;;;;4.00;3.60;;;29.20;59.80;;;;;;5135518;27;20360;-71